PIA451 OPIS-OPSD
Flight info
| Callsign | PIA451 |
|---|---|
| Flight time | 0h 40m |
| Altitude | 21000 |
| Route | BOBAM DCT KAGLO J122 SANAM |
| Aircraft | B77W/H-SDE1E2E3FGHIJ2J3J4J5M1RWXY/LB1D1 |
Departure
| Time | 2026-04-23 13:12 |
|---|---|
| Airport | Islamabad International Airport (OPIS) |
Arrival
| Time | 2026-04-23 13:52 |
|---|---|
| Airport | Skardu International Airport (OPSD) |
| Time | Latitude | Longitude | Altitude | Speed | Heading |
|---|---|---|---|---|---|
| 2026-04-23 13:02 | 33.55447 | 72.83258 | 1775 ft | 0 kts | 355° |
| 2026-04-23 13:06 | 33.55429 | 72.83260 | 1774 ft | 4 kts | 355° |
| 2026-04-23 13:06 | 33.55402 | 72.83262 | 1774 ft | 4 kts | 354° |
| 2026-04-23 13:06 | 33.55378 | 72.83268 | 1773 ft | 4 kts | 333° |
| 2026-04-23 13:07 | 33.55363 | 72.83280 | 1773 ft | 4 kts | 292° |
| 2026-04-23 13:07 | 33.55360 | 72.83300 | 1776 ft | 4 kts | 270° |
| 2026-04-23 13:07 | 33.55360 | 72.83332 | 1774 ft | 3 kts | 270° |
| 2026-04-23 13:07 | 33.55360 | 72.83337 | 1774 ft | 0 kts | 270° |
| 2026-04-23 13:08 | 33.55360 | 72.83336 | 1774 ft | 0 kts | 270° |
| 2026-04-23 13:09 | 33.55340 | 72.83270 | 1774 ft | 23 kts | 240° |
| 2026-04-23 13:09 | 33.55207 | 72.83028 | 1775 ft | 21 kts | 234° |
| 2026-04-23 13:10 | 33.55141 | 72.83018 | 1777 ft | 11 kts | 130° |
| 2026-04-23 13:10 | 33.55106 | 72.83189 | 1776 ft | 29 kts | 98° |
| 2026-04-23 13:10 | 33.55060 | 72.83428 | 1778 ft | 30 kts | 127° |
| 2026-04-23 13:10 | 33.54918 | 72.83472 | 1771 ft | 21 kts | 192° |
| 2026-04-23 13:11 | 33.54873 | 72.83441 | 1772 ft | 8 kts | 237° |
| 2026-04-23 13:11 | 33.54877 | 72.83373 | 1772 ft | 9 kts | 278° |
| 2026-04-23 13:11 | 33.54880 | 72.83351 | 1773 ft | 9 kts | 278° |
| 2026-04-23 13:11 | 33.54910 | 72.83127 | 1769 ft | 56 kts | 282° |
| 2026-04-23 13:12 | 33.55036 | 72.82344 | 1767 ft | 132 kts | 280° |
| 2026-04-23 13:12 | 33.55247 | 72.81026 | 1809 ft | 184 kts | 282° |
| 2026-04-23 13:12 | 33.55497 | 72.79503 | 2545 ft | 184 kts | 282° |
| 2026-04-23 13:12 | 33.55739 | 72.77943 | 3228 ft | 194 kts | 281° |
| 2026-04-23 13:13 | 33.55980 | 72.76369 | 4082 ft | 195 kts | 282° |
| 2026-04-23 13:13 | 33.56243 | 72.74655 | 4475 ft | 223 kts | 279° |
| 2026-04-23 13:13 | 33.56059 | 72.72705 | 4761 ft | 255 kts | 244° |
| 2026-04-23 13:13 | 33.54810 | 72.71177 | 5597 ft | 264 kts | 210° |
| 2026-04-23 13:14 | 33.53052 | 72.70531 | 6564 ft | 267 kts | 188° |
| 2026-04-23 13:14 | 33.51202 | 72.70549 | 7453 ft | 272 kts | 173° |
| 2026-04-23 13:14 | 33.49372 | 72.71212 | 8308 ft | 281 kts | 155° |
| 2026-04-23 13:14 | 33.47762 | 72.72610 | 9126 ft | 292 kts | 133° |
| 2026-04-23 13:15 | 33.46626 | 72.74668 | 10027 ft | 300 kts | 115° |
| 2026-04-23 13:15 | 33.45981 | 72.77081 | 10712 ft | 316 kts | 99° |
| 2026-04-23 13:15 | 33.45799 | 72.79832 | 10942 ft | 346 kts | 93° |
| 2026-04-23 13:15 | 33.45671 | 72.82822 | 11197 ft | 376 kts | 93° |
| 2026-04-23 13:16 | 33.45541 | 72.86022 | 11913 ft | 389 kts | 93° |
| 2026-04-23 13:16 | 33.45635 | 72.89267 | 12702 ft | 396 kts | 78° |
| 2026-04-23 13:16 | 33.46623 | 72.92357 | 13602 ft | 397 kts | 61° |
| 2026-04-23 13:16 | 33.47954 | 72.95295 | 14422 ft | 405 kts | 60° |
| 2026-04-23 13:17 | 33.49300 | 72.98287 | 15339 ft | 411 kts | 61° |
| 2026-04-23 13:17 | 33.50640 | 73.01330 | 16293 ft | 415 kts | 61° |
| 2026-04-23 13:17 | 33.51978 | 73.04412 | 17440 ft | 393 kts | 61° |
| 2026-04-23 13:17 | 33.53188 | 73.07120 | 19866 ft | 352 kts | 58° |
| 2026-04-23 13:18 | 33.54023 | 73.08787 | 20826 ft | 350 kts | 56° |
| 2026-04-23 13:18 | 33.55426 | 73.11238 | 21152 ft | 366 kts | 47° |
| 2026-04-23 13:18 | 33.57478 | 73.13152 | 21103 ft | 384 kts | 20° |
| 2026-04-23 13:18 | 33.60126 | 73.13859 | 21089 ft | 400 kts | 356° |
| 2026-04-23 13:19 | 33.62922 | 73.13484 | 21056 ft | 407 kts | 348° |
| 2026-04-23 13:19 | 33.65744 | 73.12984 | 21041 ft | 411 kts | 349° |
| 2026-04-23 13:19 | 33.68594 | 73.12569 | 21041 ft | 413 kts | 351° |
| 2026-04-23 13:19 | 33.71432 | 73.12261 | 21045 ft | 413 kts | 352° |
| 2026-04-23 13:20 | 33.74335 | 73.12034 | 21066 ft | 413 kts | 353° |
| 2026-04-23 13:20 | 33.77208 | 73.11864 | 21052 ft | 413 kts | 354° |
| 2026-04-23 13:20 | 33.80051 | 73.11726 | 20977 ft | 414 kts | 354° |
| 2026-04-23 13:20 | 33.82923 | 73.11601 | 20921 ft | 413 kts | 354° |
| 2026-04-23 13:21 | 33.85804 | 73.11480 | 20884 ft | 413 kts | 354° |
| 2026-04-23 13:21 | 33.88670 | 73.11361 | 20890 ft | 414 kts | 354° |
| 2026-04-23 13:21 | 33.91560 | 73.11238 | 20882 ft | 414 kts | 354° |
| 2026-04-23 13:21 | 33.94453 | 73.11114 | 20879 ft | 415 kts | 354° |
| 2026-04-23 13:22 | 33.97340 | 73.10988 | 20877 ft | 415 kts | 354° |
| 2026-04-23 13:22 | 34.00230 | 73.10862 | 20890 ft | 415 kts | 354° |
| 2026-04-23 13:22 | 34.03123 | 73.10735 | 20887 ft | 415 kts | 354° |
| 2026-04-23 13:22 | 34.06013 | 73.10609 | 20885 ft | 416 kts | 354° |
| 2026-04-23 13:23 | 34.08907 | 73.10482 | 20898 ft | 415 kts | 354° |
| 2026-04-23 13:23 | 34.11765 | 73.10356 | 20894 ft | 416 kts | 354° |
| 2026-04-23 13:23 | 34.14662 | 73.10228 | 20876 ft | 416 kts | 354° |
| 2026-04-23 13:23 | 34.17550 | 73.10101 | 20905 ft | 416 kts | 354° |
| 2026-04-23 13:24 | 34.20465 | 73.09972 | 20899 ft | 416 kts | 354° |
| 2026-04-23 13:24 | 34.23361 | 73.09845 | 20884 ft | 416 kts | 354° |
| 2026-04-23 13:24 | 34.26255 | 73.09718 | 20906 ft | 416 kts | 354° |
| 2026-04-23 13:24 | 34.29146 | 73.09592 | 20910 ft | 416 kts | 354° |
| 2026-04-23 13:25 | 34.32008 | 73.09466 | 20909 ft | 416 kts | 354° |
| 2026-04-23 13:25 | 34.34910 | 73.09337 | 20928 ft | 417 kts | 354° |
| 2026-04-23 13:25 | 34.37822 | 73.09208 | 20935 ft | 417 kts | 354° |
| 2026-04-23 13:25 | 34.40719 | 73.09079 | 20920 ft | 417 kts | 354° |
| 2026-04-23 13:26 | 34.43623 | 73.08952 | 20933 ft | 416 kts | 354° |
| 2026-04-23 13:26 | 34.46509 | 73.08823 | 20926 ft | 414 kts | 354° |
| 2026-04-23 13:26 | 34.49388 | 73.08695 | 20986 ft | 412 kts | 354° |
| 2026-04-23 13:26 | 34.52258 | 73.08605 | 21020 ft | 414 kts | 355° |
| 2026-04-23 13:27 | 34.55096 | 73.08668 | 21053 ft | 416 kts | 359° |
| 2026-04-23 13:27 | 34.58004 | 73.09020 | 21114 ft | 419 kts | 5° |
| 2026-04-23 13:27 | 34.60855 | 73.09771 | 21170 ft | 423 kts | 13° |
| 2026-04-23 13:27 | 34.63641 | 73.11032 | 21201 ft | 426 kts | 24° |
| 2026-04-23 13:28 | 34.66001 | 73.13220 | 21105 ft | 435 kts | 48° |
| 2026-04-23 13:28 | 34.67554 | 73.16393 | 21092 ft | 438 kts | 71° |
| 2026-04-23 13:28 | 34.68103 | 73.19997 | 21066 ft | 438 kts | 88° |
| 2026-04-23 13:28 | 34.68239 | 73.23705 | 21067 ft | 436 kts | 87° |
| 2026-04-23 13:29 | 34.68686 | 73.27307 | 21041 ft | 436 kts | 76° |
| 2026-04-23 13:29 | 34.69688 | 73.30804 | 21062 ft | 435 kts | 65° |
| 2026-04-23 13:29 | 34.71071 | 73.34053 | 21092 ft | 435 kts | 59° |
| 2026-04-23 13:29 | 34.72664 | 73.37206 | 21097 ft | 435 kts | 57° |
| 2026-04-23 13:30 | 34.74286 | 73.40304 | 21098 ft | 434 kts | 57° |
| 2026-04-23 13:30 | 34.75882 | 73.43429 | 21135 ft | 433 kts | 58° |
| 2026-04-23 13:30 | 34.77460 | 73.46552 | 21140 ft | 432 kts | 56° |
| 2026-04-23 13:30 | 34.79183 | 73.49487 | 21141 ft | 431 kts | 50° |
| 2026-04-23 13:31 | 34.81165 | 73.52206 | 21198 ft | 429 kts | 46° |
| 2026-04-23 13:31 | 34.83208 | 73.54858 | 21177 ft | 430 kts | 46° |
| 2026-04-23 13:31 | 34.85259 | 73.57500 | 21181 ft | 430 kts | 45° |
| 2026-04-23 13:31 | 34.87312 | 73.60152 | 21225 ft | 430 kts | 46° |
| 2026-04-23 13:32 | 34.89362 | 73.62816 | 21202 ft | 430 kts | 46° |
| 2026-04-23 13:32 | 34.91410 | 73.65493 | 21211 ft | 431 kts | 46° |
| 2026-04-23 13:32 | 34.93446 | 73.68165 | 21213 ft | 431 kts | 46° |
| 2026-04-23 13:32 | 34.95487 | 73.70853 | 21249 ft | 431 kts | 46° |
| 2026-04-23 13:33 | 34.97525 | 73.73537 | 21251 ft | 432 kts | 46° |
| 2026-04-23 13:33 | 34.99569 | 73.76232 | 21227 ft | 432 kts | 46° |
| 2026-04-23 13:33 | 35.01575 | 73.78894 | 21247 ft | 432 kts | 47° |
| 2026-04-23 13:33 | 35.03601 | 73.81679 | 21255 ft | 432 kts | 48° |
| 2026-04-23 13:34 | 35.05575 | 73.84454 | 21220 ft | 432 kts | 49° |
| 2026-04-23 13:34 | 35.07513 | 73.87196 | 21238 ft | 432 kts | 49° |
| 2026-04-23 13:34 | 35.09476 | 73.89977 | 21208 ft | 431 kts | 49° |
| 2026-04-23 13:34 | 35.11430 | 73.92740 | 21195 ft | 430 kts | 49° |
| 2026-04-23 13:35 | 35.13394 | 73.95510 | 21186 ft | 430 kts | 49° |
| 2026-04-23 13:35 | 35.15348 | 73.98261 | 21178 ft | 429 kts | 48° |
| 2026-04-23 13:35 | 35.17312 | 74.01025 | 21182 ft | 428 kts | 48° |
| 2026-04-23 13:35 | 35.19264 | 74.03772 | 21164 ft | 428 kts | 49° |
| 2026-04-23 13:36 | 35.21217 | 74.06521 | 21184 ft | 427 kts | 49° |
| 2026-04-23 13:36 | 35.23168 | 74.09273 | 21150 ft | 428 kts | 49° |
| 2026-04-23 13:36 | 35.25120 | 74.12025 | 21184 ft | 428 kts | 49° |
| 2026-04-23 13:36 | 35.27064 | 74.14776 | 21147 ft | 427 kts | 49° |
| 2026-04-23 13:37 | 35.28991 | 74.17501 | 21164 ft | 428 kts | 49° |
| 2026-04-23 13:37 | 35.30948 | 74.20270 | 21145 ft | 430 kts | 49° |
| 2026-04-23 13:37 | 35.32915 | 74.23057 | 21135 ft | 429 kts | 49° |
| 2026-04-23 13:37 | 35.34867 | 74.25823 | 21128 ft | 431 kts | 49° |
| 2026-04-23 13:38 | 35.36830 | 74.28603 | 21129 ft | 430 kts | 49° |
| 2026-04-23 13:38 | 35.38762 | 74.31345 | 21123 ft | 430 kts | 49° |
| 2026-04-23 13:38 | 35.40719 | 74.34124 | 21135 ft | 429 kts | 49° |
| 2026-04-23 13:38 | 35.42665 | 74.36891 | 21144 ft | 428 kts | 49° |
| 2026-04-23 13:39 | 35.44615 | 74.39666 | 21139 ft | 428 kts | 49° |
| 2026-04-23 13:39 | 35.46555 | 74.42431 | 21100 ft | 427 kts | 49° |
| 2026-04-23 13:39 | 35.48490 | 74.45192 | 21137 ft | 426 kts | 49° |
| 2026-04-23 13:39 | 35.50428 | 74.47953 | 21127 ft | 425 kts | 49° |
| 2026-04-23 13:40 | 35.52357 | 74.50701 | 21136 ft | 424 kts | 49° |
| 2026-04-23 13:40 | 35.54258 | 74.53417 | 21136 ft | 424 kts | 49° |
| 2026-04-23 13:40 | 35.56180 | 74.56165 | 21132 ft | 425 kts | 49° |
| 2026-04-23 13:40 | 35.58107 | 74.58922 | 21160 ft | 425 kts | 49° |
| 2026-04-23 13:41 | 35.60040 | 74.61684 | 21099 ft | 426 kts | 49° |
| 2026-04-23 13:41 | 35.61967 | 74.64454 | 21146 ft | 425 kts | 49° |
| 2026-04-23 13:41 | 35.63875 | 74.67196 | 21140 ft | 426 kts | 49° |
| 2026-04-23 13:41 | 35.65801 | 74.69963 | 21141 ft | 427 kts | 49° |
| 2026-04-23 13:42 | 35.67716 | 74.72712 | 21139 ft | 417 kts | 49° |
| 2026-04-23 13:42 | 35.69469 | 74.75488 | 20813 ft | 405 kts | 60° |
| 2026-04-23 13:42 | 35.70446 | 74.78706 | 20376 ft | 400 kts | 81° |
| 2026-04-23 13:42 | 35.70591 | 74.82092 | 19960 ft | 394 kts | 96° |
| 2026-04-23 13:43 | 35.70047 | 74.85377 | 19481 ft | 387 kts | 107° |
| 2026-04-23 13:43 | 35.69282 | 74.88511 | 19063 ft | 385 kts | 108° |
| 2026-04-23 13:43 | 35.68489 | 74.91636 | 18583 ft | 385 kts | 109° |
| 2026-04-23 13:43 | 35.67689 | 74.94795 | 18085 ft | 384 kts | 108° |
| 2026-04-23 13:44 | 35.66910 | 74.97910 | 17586 ft | 382 kts | 108° |
| 2026-04-23 13:44 | 35.66138 | 75.01048 | 17106 ft | 379 kts | 108° |
| 2026-04-23 13:44 | 35.65384 | 75.04147 | 16674 ft | 376 kts | 108° |
| 2026-04-23 13:44 | 35.64636 | 75.07233 | 16206 ft | 374 kts | 108° |
| 2026-04-23 13:45 | 35.64146 | 75.09251 | 15913 ft | 372 kts | 107° |
| 2026-04-23 13:45 | 35.63160 | 75.13319 | 15308 ft | 370 kts | 107° |
| 2026-04-23 13:45 | 35.62434 | 75.16316 | 14850 ft | 368 kts | 107° |
| 2026-04-23 13:45 | 35.61707 | 75.19311 | 14388 ft | 366 kts | 107° |
| 2026-04-23 13:46 | 35.60980 | 75.22307 | 13937 ft | 365 kts | 107° |
| 2026-04-23 13:46 | 35.60254 | 75.25291 | 13426 ft | 363 kts | 107° |
| 2026-04-23 13:46 | 35.59531 | 75.28258 | 12956 ft | 360 kts | 107° |
| 2026-04-23 13:46 | 35.58733 | 75.31136 | 12644 ft | 348 kts | 116° |
| 2026-04-23 13:47 | 35.57427 | 75.33514 | 12638 ft | 330 kts | 132° |
| 2026-04-23 13:47 | 35.55759 | 75.35306 | 12609 ft | 309 kts | 146° |
| 2026-04-23 13:47 | 35.53805 | 75.36295 | 12601 ft | 310 kts | 174° |
| 2026-04-23 13:47 | 35.51680 | 75.36266 | 12228 ft | 304 kts | 186° |
| 2026-04-23 13:48 | 35.49586 | 75.36049 | 11757 ft | 295 kts | 182° |
| 2026-04-23 13:48 | 35.47649 | 75.36385 | 11462 ft | 269 kts | 146° |
| 2026-04-23 13:48 | 35.46834 | 75.38129 | 11659 ft | 246 kts | 97° |
| 2026-04-23 13:48 | 35.47019 | 75.40303 | 10447 ft | 268 kts | 77° |
| 2026-04-23 13:49 | 35.46910 | 75.42339 | 10460 ft | 228 kts | 108° |
| 2026-04-23 13:49 | 35.46097 | 75.44020 | 9786 ft | 227 kts | 129° |
| 2026-04-23 13:49 | 35.44997 | 75.45250 | 9512 ft | 197 kts | 144° |
| 2026-04-23 13:49 | 35.43913 | 75.46195 | 9038 ft | 185 kts | 146° |
| 2026-04-23 13:50 | 35.42906 | 75.47005 | 8710 ft | 163 kts | 149° |
| 2026-04-23 13:50 | 35.41994 | 75.47674 | 8328 ft | 145 kts | 150° |
| 2026-04-23 13:50 | 35.41083 | 75.48346 | 8112 ft | 164 kts | 149° |
| 2026-04-23 13:50 | 35.40096 | 75.49164 | 8398 ft | 168 kts | 141° |
| 2026-04-23 13:51 | 35.39145 | 75.50004 | 8372 ft | 170 kts | 145° |
| 2026-04-23 13:51 | 35.38174 | 75.50831 | 8163 ft | 168 kts | 146° |
| 2026-04-23 13:51 | 35.37205 | 75.51588 | 7860 ft | 163 kts | 148° |
| 2026-04-23 13:51 | 35.36275 | 75.52309 | 7628 ft | 155 kts | 148° |
| 2026-04-23 13:52 | 35.35401 | 75.52994 | 7400 ft | 140 kts | 145° |
| 2026-04-23 13:52 | 35.34689 | 75.53559 | 7372 ft | 99 kts | 147° |
| 2026-04-23 13:52 | 35.34333 | 75.53842 | 7370 ft | 14 kts | 146° |
| 2026-04-23 13:52 | 35.34230 | 75.53926 | 7369 ft | 23 kts | 146° |
| 2026-04-23 13:53 | 35.34095 | 75.54029 | 7366 ft | 24 kts | 149° |
| 2026-04-23 13:53 | 35.33952 | 75.54132 | 7371 ft | 24 kts | 149° |
| 2026-04-23 13:53 | 35.33816 | 75.54246 | 7368 ft | 24 kts | 145° |
| 2026-04-23 13:53 | 35.33677 | 75.54357 | 7367 ft | 24 kts | 148° |
| 2026-04-23 13:54 | 35.33539 | 75.54462 | 7361 ft | 24 kts | 147° |
| 2026-04-23 13:54 | 35.33421 | 75.54555 | 7366 ft | 16 kts | 152° |
| 2026-04-23 13:54 | 35.33337 | 75.54526 | 7366 ft | 8 kts | 240° |
| 2026-04-23 13:54 | 35.33308 | 75.54463 | 7368 ft | 8 kts | 240° |
| 2026-04-23 13:55 | 35.33278 | 75.54402 | 7367 ft | 8 kts | 237° |
| 2026-04-23 13:55 | 35.33246 | 75.54341 | 7367 ft | 8 kts | 237° |
| 2026-04-23 13:55 | 35.33214 | 75.54281 | 7370 ft | 8 kts | 237° |
| 2026-04-23 13:55 | 35.33181 | 75.54220 | 7371 ft | 8 kts | 236° |
| 2026-04-23 13:56 | 35.33155 | 75.54155 | 7369 ft | 9 kts | 246° |
| 2026-04-23 13:56 | 35.33123 | 75.54116 | 7371 ft | 2 kts | 193° |
| 2026-04-23 13:56 | 35.33098 | 75.54126 | 7371 ft | 1 kts | 152° |
| 2026-04-23 13:56 | 35.33097 | 75.54128 | 7371 ft | 0 kts | 146° |